sensor_id;sensor_type;location;lat;lon;timestamp;P1;durP1;ratioP1;P2;durP2;ratioP2
13102;SDS011;52970;46.752;17.108;2023-04-24T00:01:07;9.82;;;5.95;;
13102;SDS011;52970;46.752;17.108;2023-04-24T00:03:33;6.93;;;6.22;;
13102;SDS011;52970;46.752;17.108;2023-04-24T00:05:59;7.38;;;5.88;;
13102;SDS011;52970;46.752;17.108;2023-04-24T00:08:25;6.57;;;5.88;;
13102;SDS011;52970;46.752;17.108;2023-04-24T00:10:51;6.90;;;6.22;;
13102;SDS011;52970;46.752;17.108;2023-04-24T00:13:17;7.90;;;6.03;;
13102;SDS011;52970;46.752;17.108;2023-04-24T00:15:42;7.60;;;6.25;;
13102;SDS011;52970;46.752;17.108;2023-04-24T00:18:08;7.50;;;6.25;;
13102;SDS011;52970;46.752;17.108;2023-04-24T00:20:34;7.47;;;6.47;;
13102;SDS011;52970;46.752;17.108;2023-04-24T00:23:00;6.35;;;5.85;;
13102;SDS011;52970;46.752;17.108;2023-04-24T00:25:25;7.53;;;6.30;;
13102;SDS011;52970;46.752;17.108;2023-04-24T00:27:51;7.63;;;6.63;;
13102;SDS011;52970;46.752;17.108;2023-04-24T00:30:16;6.63;;;6.03;;
13102;SDS011;52970;46.752;17.108;2023-04-24T00:32:41;6.78;;;6.10;;
13102;SDS011;52970;46.752;17.108;2023-04-24T00:35:07;7.20;;;6.47;;
13102;SDS011;52970;46.752;17.108;2023-04-24T00:37:32;7.18;;;6.50;;
13102;SDS011;52970;46.752;17.108;2023-04-24T00:39:57;6.97;;;6.30;;
13102;SDS011;52970;46.752;17.108;2023-04-24T00:42:23;6.97;;;6.35;;
13102;SDS011;52970;46.752;17.108;2023-04-24T00:44:48;8.25;;;6.90;;
13102;SDS011;52970;46.752;17.108;2023-04-24T00:47:13;6.95;;;6.35;;
13102;SDS011;52970;46.752;17.108;2023-04-24T00:49:39;7.00;;;6.20;;
13102;SDS011;52970;46.752;17.108;2023-04-24T00:52:04;5.95;;;5.05;;
13102;SDS011;52970;46.752;17.108;2023-04-24T00:54:32;5.90;;;5.40;;
13102;SDS011;52970;46.752;17.108;2023-04-24T00:56:58;5.30;;;4.80;;
13102;SDS011;52970;46.752;17.108;2023-04-24T00:59:23;5.45;;;4.95;;
13102;SDS011;52970;46.752;17.108;2023-04-24T01:01:48;4.75;;;4.35;;
13102;SDS011;52970;46.752;17.108;2023-04-24T01:04:13;4.82;;;4.28;;
13102;SDS011;52970;46.752;17.108;2023-04-24T01:06:39;4.13;;;3.83;;
13102;SDS011;52970;46.752;17.108;2023-04-24T01:09:05;4.82;;;4.00;;
13102;SDS011;52970;46.752;17.108;2023-04-24T01:11:30;4.30;;;3.83;;
13102;SDS011;52970;46.752;17.108;2023-04-24T01:13:56;5.35;;;4.18;;
13102;SDS011;52970;46.752;17.108;2023-04-24T01:16:21;4.55;;;4.18;;
13102;SDS011;52970;46.752;17.108;2023-04-24T01:18:47;4.15;;;3.75;;
13102;SDS011;52970;46.752;17.108;2023-04-24T01:21:15;4.40;;;4.00;;
13102;SDS011;52970;46.752;17.108;2023-04-24T01:23:44;4.78;;;4.32;;
13102;SDS011;52970;46.752;17.108;2023-04-24T01:26:09;4.30;;;3.90;;
13102;SDS011;52970;46.752;17.108;2023-04-24T01:28:35;4.47;;;3.80;;
13102;SDS011;52970;46.752;17.108;2023-04-24T01:31:00;5.13;;;3.75;;
13102;SDS011;52970;46.752;17.108;2023-04-24T01:33:25;4.18;;;3.83;;
13102;SDS011;52970;46.752;17.108;2023-04-24T01:35:51;3.83;;;3.53;;
13102;SDS011;52970;46.752;17.108;2023-04-24T01:38:16;4.25;;;3.88;;
13102;SDS011;52970;46.752;17.108;2023-04-24T01:40:41;4.53;;;3.90;;
13102;SDS011;52970;46.752;17.108;2023-04-24T01:43:07;4.45;;;4.05;;
13102;SDS011;52970;46.752;17.108;2023-04-24T01:45:32;4.13;;;3.80;;
13102;SDS011;52970;46.752;17.108;2023-04-24T01:47:57;3.58;;;3.28;;
13102;SDS011;52970;46.752;17.108;2023-04-24T01:50:23;3.90;;;3.60;;
13102;SDS011;52970;46.752;17.108;2023-04-24T01:52:48;4.18;;;3.78;;
13102;SDS011;52970;46.752;17.108;2023-04-24T01:55:13;4.18;;;3.85;;
13102;SDS011;52970;46.752;17.108;2023-04-24T01:57:39;3.85;;;3.55;;
13102;SDS011;52970;46.752;17.108;2023-04-24T02:00:05;4.30;;;3.90;;
13102;SDS011;52970;46.752;17.108;2023-04-24T02:02:31;5.50;;;3.63;;
13102;SDS011;52970;46.752;17.108;2023-04-24T02:04:57;4.28;;;3.88;;
13102;SDS011;52970;46.752;17.108;2023-04-24T02:07:22;4.05;;;3.65;;
13102;SDS011;52970;46.752;17.108;2023-04-24T02:09:48;3.90;;;3.60;;
13102;SDS011;52970;46.752;17.108;2023-04-24T02:12:13;4.15;;;3.75;;
13102;SDS011;52970;46.752;17.108;2023-04-24T02:14:38;5.10;;;4.38;;
13102;SDS011;52970;46.752;17.108;2023-04-24T02:17:04;4.72;;;4.10;;
13102;SDS011;52970;46.752;17.108;2023-04-24T02:19:30;4.10;;;3.80;;
13102;SDS011;52970;46.752;17.108;2023-04-24T02:21:55;3.92;;;3.63;;
13102;SDS011;52970;46.752;17.108;2023-04-24T02:24:20;4.38;;;3.97;;
13102;SDS011;52970;46.752;17.108;2023-04-24T02:26:45;5.25;;;4.35;;
13102;SDS011;52970;46.752;17.108;2023-04-24T02:29:11;5.00;;;3.70;;
13102;SDS011;52970;46.752;17.108;2023-04-24T02:31:36;4.00;;;3.70;;
13102;SDS011;52970;46.752;17.108;2023-04-24T02:34:01;4.35;;;3.92;;
13102;SDS011;52970;46.752;17.108;2023-04-24T02:36:26;5.00;;;3.90;;
13102;SDS011;52970;46.752;17.108;2023-04-24T02:38:52;4.43;;;4.07;;
13102;SDS011;52970;46.752;17.108;2023-04-24T02:41:17;6.88;;;4.47;;
13102;SDS011;52970;46.752;17.108;2023-04-24T02:43:42;4.63;;;3.85;;
13102;SDS011;52970;46.752;17.108;2023-04-24T02:46:07;4.22;;;3.83;;
13102;SDS011;52970;46.752;17.108;2023-04-24T02:48:32;5.70;;;4.30;;
13102;SDS011;52970;46.752;17.108;2023-04-24T02:50:58;6.57;;;4.10;;
13102;SDS011;52970;46.752;17.108;2023-04-24T02:53:23;4.78;;;4.32;;
13102;SDS011;52970;46.752;17.108;2023-04-24T02:55:48;4.15;;;3.85;;
13102;SDS011;52970;46.752;17.108;2023-04-24T02:58:14;4.82;;;4.43;;
13102;SDS011;52970;46.752;17.108;2023-04-24T03:00:39;5.15;;;3.70;;
13102;SDS011;52970;46.752;17.108;2023-04-24T03:03:04;4.65;;;4.25;;
13102;SDS011;52970;46.752;17.108;2023-04-24T03:05:30;4.53;;;4.13;;
13102;SDS011;52970;46.752;17.108;2023-04-24T03:07:56;4.13;;;3.80;;
13102;SDS011;52970;46.752;17.108;2023-04-24T03:10:21;4.22;;;3.92;;
13102;SDS011;52970;46.752;17.108;2023-04-24T03:12:47;4.30;;;4.00;;
13102;SDS011;52970;46.752;17.108;2023-04-24T03:15:12;5.43;;;4.35;;
13102;SDS011;52970;46.752;17.108;2023-04-24T03:17:38;5.43;;;4.50;;
13102;SDS011;52970;46.752;17.108;2023-04-24T03:20:04;5.20;;;4.72;;
13102;SDS011;52970;46.752;17.108;2023-04-24T03:22:30;4.70;;;4.22;;
13102;SDS011;52970;46.752;17.108;2023-04-24T03:24:57;5.22;;;4.75;;
13102;SDS011;52970;46.752;17.108;2023-04-24T03:27:22;5.20;;;4.80;;
13102;SDS011;52970;46.752;17.108;2023-04-24T03:29:48;5.75;;;4.95;;
13102;SDS011;52970;46.752;17.108;2023-04-24T03:32:16;7.78;;;5.82;;
13102;SDS011;52970;46.752;17.108;2023-04-24T03:34:41;6.05;;;5.40;;
13102;SDS011;52970;46.752;17.108;2023-04-24T03:37:07;6.80;;;6.10;;
13102;SDS011;52970;46.752;17.108;2023-04-24T03:39:32;8.00;;;5.93;;
13102;SDS011;52970;46.752;17.108;2023-04-24T03:41:57;7.63;;;6.22;;
13102;SDS011;52970;46.752;17.108;2023-04-24T03:44:22;8.23;;;6.85;;
13102;SDS011;52970;46.752;17.108;2023-04-24T03:46:48;10.35;;;7.68;;
13102;SDS011;52970;46.752;17.108;2023-04-24T03:49:13;14.45;;;8.45;;
13102;SDS011;52970;46.752;17.108;2023-04-24T03:51:38;9.93;;;8.13;;
13102;SDS011;52970;46.752;17.108;2023-04-24T03:54:04;10.13;;;6.82;;
13102;SDS011;52970;46.752;17.108;2023-04-24T03:56:29;8.80;;;6.45;;
13102;SDS011;52970;46.752;17.108;2023-04-24T03:58:55;7.43;;;6.00;;
13102;SDS011;52970;46.752;17.108;2023-04-24T04:01:20;4.85;;;4.40;;
13102;SDS011;52970;46.752;17.108;2023-04-24T04:03:45;6.10;;;5.35;;
13102;SDS011;52970;46.752;17.108;2023-04-24T04:06:11;7.38;;;5.35;;
13102;SDS011;52970;46.752;17.108;2023-04-24T04:08:38;6.07;;;4.95;;
13102;SDS011;52970;46.752;17.108;2023-04-24T04:11:03;6.43;;;4.50;;
13102;SDS011;52970;46.752;17.108;2023-04-24T04:13:28;5.13;;;4.50;;
13102;SDS011;52970;46.752;17.108;2023-04-24T04:15:53;4.85;;;4.35;;
13102;SDS011;52970;46.752;17.108;2023-04-24T04:18:19;6.38;;;4.88;;
13102;SDS011;52970;46.752;17.108;2023-04-24T04:20:44;6.45;;;4.60;;
13102;SDS011;52970;46.752;17.108;2023-04-24T04:23:09;5.20;;;4.70;;
13102;SDS011;52970;46.752;17.108;2023-04-24T04:25:34;7.57;;;5.20;;
13102;SDS011;52970;46.752;17.108;2023-04-24T04:28:00;17.65;;;14.55;;
13102;SDS011;52970;46.752;17.108;2023-04-24T04:30:27;15.68;;;10.13;;
13102;SDS011;52970;46.752;17.108;2023-04-24T04:32:54;11.15;;;8.80;;
13102;SDS011;52970;46.752;17.108;2023-04-24T04:35:20;5.88;;;5.32;;
13102;SDS011;52970;46.752;17.108;2023-04-24T04:37:45;9.15;;;7.10;;
13102;SDS011;52970;46.752;17.108;2023-04-24T04:40:10;8.25;;;6.40;;
13102;SDS011;52970;46.752;17.108;2023-04-24T04:42:36;7.70;;;6.35;;
13102;SDS011;52970;46.752;17.108;2023-04-24T04:45:05;6.53;;;5.90;;
13102;SDS011;52970;46.752;17.108;2023-04-24T04:47:31;6.13;;;5.53;;
13102;SDS011;52970;46.752;17.108;2023-04-24T04:49:57;7.95;;;5.93;;
13102;SDS011;52970;46.752;17.108;2023-04-24T04:52:22;9.57;;;5.90;;
13102;SDS011;52970;46.752;17.108;2023-04-24T04:54:50;11.02;;;5.50;;
13102;SDS011;52970;46.752;17.108;2023-04-24T04:57:15;5.72;;;5.20;;
13102;SDS011;52970;46.752;17.108;2023-04-24T04:59:40;6.25;;;4.90;;
13102;SDS011;52970;46.752;17.108;2023-04-24T05:02:06;5.72;;;5.13;;
13102;SDS011;52970;46.752;17.108;2023-04-24T05:04:31;5.72;;;5.00;;
13102;SDS011;52970;46.752;17.108;2023-04-24T05:06:57;5.95;;;4.97;;
13102;SDS011;52970;46.752;17.108;2023-04-24T05:09:22;17.65;;;6.65;;
13102;SDS011;52970;46.752;17.108;2023-04-24T05:11:47;14.90;;;6.07;;
13102;SDS011;52970;46.752;17.108;2023-04-24T05:14:12;12.15;;;6.28;;
13102;SDS011;52970;46.752;17.108;2023-04-24T05:16:38;17.98;;;6.43;;
13102;SDS011;52970;46.752;17.108;2023-04-24T05:19:03;8.07;;;5.22;;
13102;SDS011;52970;46.752;17.108;2023-04-24T05:21:28;9.35;;;5.70;;
13102;SDS011;52970;46.752;17.108;2023-04-24T05:23:54;11.27;;;5.88;;
13102;SDS011;52970;46.752;17.108;2023-04-24T05:26:19;9.05;;;5.70;;
13102;SDS011;52970;46.752;17.108;2023-04-24T05:28:44;8.50;;;5.93;;
13102;SDS011;52970;46.752;17.108;2023-04-24T05:31:10;7.03;;;5.53;;
13102;SDS011;52970;46.752;17.108;2023-04-24T05:33:35;7.35;;;5.22;;
13102;SDS011;52970;46.752;17.108;2023-04-24T05:36:00;5.68;;;5.18;;
13102;SDS011;52970;46.752;17.108;2023-04-24T05:38:26;6.55;;;5.28;;
13102;SDS011;52970;46.752;17.108;2023-04-24T05:40:51;5.80;;;5.18;;
13102;SDS011;52970;46.752;17.108;2023-04-24T05:43:16;7.72;;;5.43;;
13102;SDS011;52970;46.752;17.108;2023-04-24T05:45:41;5.80;;;5.30;;
13102;SDS011;52970;46.752;17.108;2023-04-24T05:48:07;6.40;;;5.80;;
13102;SDS011;52970;46.752;17.108;2023-04-24T05:50:32;7.25;;;6.07;;
13102;SDS011;52970;46.752;17.108;2023-04-24T05:52:57;7.40;;;5.90;;
13102;SDS011;52970;46.752;17.108;2023-04-24T05:55:26;8.52;;;7.13;;
13102;SDS011;52970;46.752;17.108;2023-04-24T05:57:52;8.85;;;6.43;;
13102;SDS011;52970;46.752;17.108;2023-04-24T06:00:17;11.65;;;8.10;;
13102;SDS011;52970;46.752;17.108;2023-04-24T06:02:44;7.32;;;6.63;;
13102;SDS011;52970;46.752;17.108;2023-04-24T06:05:10;9.90;;;7.35;;
13102;SDS011;52970;46.752;17.108;2023-04-24T06:07:35;8.60;;;7.30;;
13102;SDS011;52970;46.752;17.108;2023-04-24T06:10:01;6.85;;;6.25;;
13102;SDS011;52970;46.752;17.108;2023-04-24T06:12:26;6.95;;;5.63;;
13102;SDS011;52970;46.752;17.108;2023-04-24T06:14:52;5.97;;;5.47;;
13102;SDS011;52970;46.752;17.108;2023-04-24T06:17:17;7.32;;;5.20;;
13102;SDS011;52970;46.752;17.108;2023-04-24T06:19:43;5.60;;;5.10;;
13102;SDS011;52970;46.752;17.108;2023-04-24T06:22:08;6.53;;;5.38;;
13102;SDS011;52970;46.752;17.108;2023-04-24T06:24:34;5.85;;;5.25;;
13102;SDS011;52970;46.752;17.108;2023-04-24T06:26:59;5.47;;;4.88;;
13102;SDS011;52970;46.752;17.108;2023-04-24T06:29:25;5.65;;;5.07;;
13102;SDS011;52970;46.752;17.108;2023-04-24T06:31:50;6.60;;;5.25;;
13102;SDS011;52970;46.752;17.108;2023-04-24T06:34:16;5.68;;;5.18;;
13102;SDS011;52970;46.752;17.108;2023-04-24T06:36:41;6.47;;;4.70;;
13102;SDS011;52970;46.752;17.108;2023-04-24T06:39:06;5.70;;;4.80;;
13102;SDS011;52970;46.752;17.108;2023-04-24T06:41:32;6.32;;;5.05;;
13102;SDS011;52970;46.752;17.108;2023-04-24T06:43:57;5.57;;;5.07;;
13102;SDS011;52970;46.752;17.108;2023-04-24T06:46:22;5.15;;;4.65;;
13102;SDS011;52970;46.752;17.108;2023-04-24T06:48:50;5.18;;;4.68;;
13102;SDS011;52970;46.752;17.108;2023-04-24T06:51:16;5.60;;;5.10;;
13102;SDS011;52970;46.752;17.108;2023-04-24T06:53:43;5.80;;;5.07;;
13102;SDS011;52970;46.752;17.108;2023-04-24T06:56:08;5.30;;;4.88;;
13102;SDS011;52970;46.752;17.108;2023-04-24T06:58:33;5.50;;;5.00;;
13102;SDS011;52970;46.752;17.108;2023-04-24T07:00:58;5.68;;;4.97;;
13102;SDS011;52970;46.752;17.108;2023-04-24T07:03:24;5.25;;;4.75;;
13102;SDS011;52970;46.752;17.108;2023-04-24T07:05:49;7.50;;;5.63;;
13102;SDS011;52970;46.752;17.108;2023-04-24T07:08:14;7.30;;;4.97;;
13102;SDS011;52970;46.752;17.108;2023-04-24T07:10:41;6.18;;;5.25;;
13102;SDS011;52970;46.752;17.108;2023-04-24T07:13:07;6.00;;;5.05;;
13102;SDS011;52970;46.752;17.108;2023-04-24T07:15:33;5.32;;;4.72;;
13102;SDS011;52970;46.752;17.108;2023-04-24T07:17:59;6.38;;;5.15;;
13102;SDS011;52970;46.752;17.108;2023-04-24T07:20:24;6.88;;;5.20;;
13102;SDS011;52970;46.752;17.108;2023-04-24T07:22:50;5.95;;;4.85;;
13102;SDS011;52970;46.752;17.108;2023-04-24T07:25:16;8.07;;;5.57;;
13102;SDS011;52970;46.752;17.108;2023-04-24T07:27:42;5.47;;;4.93;;
13102;SDS011;52970;46.752;17.108;2023-04-24T07:30:07;8.88;;;5.07;;
13102;SDS011;52970;46.752;17.108;2023-04-24T07:32:33;5.55;;;5.00;;
13102;SDS011;52970;46.752;17.108;2023-04-24T07:34:58;5.97;;;5.28;;
13102;SDS011;52970;46.752;17.108;2023-04-24T07:37:23;11.00;;;6.25;;
13102;SDS011;52970;46.752;17.108;2023-04-24T07:39:49;9.93;;;5.18;;
13102;SDS011;52970;46.752;17.108;2023-04-24T07:42:14;5.63;;;4.70;;
13102;SDS011;52970;46.752;17.108;2023-04-24T07:44:39;5.90;;;4.70;;
13102;SDS011;52970;46.752;17.108;2023-04-24T07:47:05;4.95;;;4.43;;
13102;SDS011;52970;46.752;17.108;2023-04-24T07:49:30;5.72;;;4.68;;
13102;SDS011;52970;46.752;17.108;2023-04-24T07:51:56;6.90;;;5.22;;
13102;SDS011;52970;46.752;17.108;2023-04-24T07:54:21;7.82;;;4.93;;
13102;SDS011;52970;46.752;17.108;2023-04-24T07:56:46;5.72;;;4.60;;
13102;SDS011;52970;46.752;17.108;2023-04-24T07:59:11;6.68;;;4.75;;
13102;SDS011;52970;46.752;17.108;2023-04-24T08:01:37;5.18;;;4.35;;
13102;SDS011;52970;46.752;17.108;2023-04-24T08:04:02;5.95;;;5.00;;
13102;SDS011;52970;46.752;17.108;2023-04-24T08:06:28;5.82;;;4.70;;
13102;SDS011;52970;46.752;17.108;2023-04-24T08:08:55;5.70;;;4.88;;
13102;SDS011;52970;46.752;17.108;2023-04-24T08:11:21;5.15;;;4.57;;
13102;SDS011;52970;46.752;17.108;2023-04-24T08:13:46;5.95;;;4.82;;
13102;SDS011;52970;46.752;17.108;2023-04-24T08:16:11;5.13;;;4.65;;
13102;SDS011;52970;46.752;17.108;2023-04-24T08:18:36;7.15;;;5.25;;
13102;SDS011;52970;46.752;17.108;2023-04-24T08:21:03;7.68;;;5.22;;
13102;SDS011;52970;46.752;17.108;2023-04-24T08:23:28;6.25;;;4.80;;
13102;SDS011;52970;46.752;17.108;2023-04-24T08:25:54;5.68;;;4.90;;
13102;SDS011;52970;46.752;17.108;2023-04-24T08:28:20;7.90;;;5.30;;
13102;SDS011;52970;46.752;17.108;2023-04-24T08:30:45;7.47;;;5.05;;
13102;SDS011;52970;46.752;17.108;2023-04-24T08:33:11;6.28;;;5.35;;
13102;SDS011;52970;46.752;17.108;2023-04-24T08:35:36;5.88;;;5.28;;
13102;SDS011;52970;46.752;17.108;2023-04-24T08:38:01;6.45;;;4.88;;
13102;SDS011;52970;46.752;17.108;2023-04-24T08:40:27;10.93;;;6.32;;
13102;SDS011;52970;46.752;17.108;2023-04-24T08:42:56;10.35;;;6.20;;
13102;SDS011;52970;46.752;17.108;2023-04-24T08:45:22;6.70;;;6.05;;
13102;SDS011;52970;46.752;17.108;2023-04-24T08:47:48;7.15;;;5.60;;
13102;SDS011;52970;46.752;17.108;2023-04-24T08:50:14;7.10;;;5.45;;
13102;SDS011;52970;46.752;17.108;2023-04-24T08:52:41;6.80;;;5.60;;
13102;SDS011;52970;46.752;17.108;2023-04-24T08:55:07;7.85;;;5.78;;
13102;SDS011;52970;46.752;17.108;2023-04-24T08:57:32;6.28;;;5.47;;
13102;SDS011;52970;46.752;17.108;2023-04-24T08:59:58;6.43;;;5.80;;
13102;SDS011;52970;46.752;17.108;2023-04-24T09:02:25;9.07;;;6.13;;
13102;SDS011;52970;46.752;17.108;2023-04-24T09:04:51;9.52;;;7.80;;
13102;SDS011;52970;46.752;17.108;2023-04-24T09:07:17;7.82;;;6.50;;
13102;SDS011;52970;46.752;17.108;2023-04-24T09:09:44;12.10;;;9.55;;
13102;SDS011;52970;46.752;17.108;2023-04-24T09:12:10;9.48;;;7.65;;
13102;SDS011;52970;46.752;17.108;2023-04-24T09:14:36;8.95;;;6.00;;
13102;SDS011;52970;46.752;17.108;2023-04-24T09:17:04;6.32;;;5.55;;
13102;SDS011;52970;46.752;17.108;2023-04-24T09:19:29;6.75;;;5.80;;
13102;SDS011;52970;46.752;17.108;2023-04-24T09:21:55;6.65;;;5.30;;
13102;SDS011;52970;46.752;17.108;2023-04-24T09:24:21;7.65;;;5.32;;
13102;SDS011;52970;46.752;17.108;2023-04-24T09:26:49;6.45;;;5.05;;
13102;SDS011;52970;46.752;17.108;2023-04-24T09:29:22;8.05;;;5.18;;
13102;SDS011;52970;46.752;17.108;2023-04-24T09:31:47;5.80;;;5.30;;
13102;SDS011;52970;46.752;17.108;2023-04-24T09:34:12;9.52;;;6.95;;
13102;SDS011;52970;46.752;17.108;2023-04-24T09:36:39;9.00;;;7.35;;
13102;SDS011;52970;46.752;17.108;2023-04-24T09:39:06;6.80;;;5.85;;
13102;SDS011;52970;46.752;17.108;2023-04-24T09:41:43;13.00;;;7.72;;
13102;SDS011;52970;46.752;17.108;2023-04-24T09:44:12;19.30;;;13.63;;
13102;SDS011;52970;46.752;17.108;2023-04-24T09:46:38;12.05;;;9.57;;
13102;SDS011;52970;46.752;17.108;2023-04-24T09:49:10;8.48;;;6.68;;
13102;SDS011;52970;46.752;17.108;2023-04-24T09:51:36;6.65;;;5.68;;
13102;SDS011;52970;46.752;17.108;2023-04-24T09:54:03;7.00;;;5.43;;
13102;SDS011;52970;46.752;17.108;2023-04-24T09:56:29;7.35;;;6.43;;
13102;SDS011;52970;46.752;17.108;2023-04-24T09:59:03;10.95;;;8.88;;
13102;SDS011;52970;46.752;17.108;2023-04-24T10:01:32;12.57;;;8.50;;
13102;SDS011;52970;46.752;17.108;2023-04-24T10:03:57;9.07;;;6.72;;
13102;SDS011;52970;46.752;17.108;2023-04-24T10:06:22;10.43;;;7.10;;
13102;SDS011;52970;46.752;17.108;2023-04-24T10:08:55;8.48;;;5.30;;
13102;SDS011;52970;46.752;17.108;2023-04-24T10:11:23;7.22;;;5.00;;
13102;SDS011;52970;46.752;17.108;2023-04-24T10:13:49;6.30;;;5.10;;
13102;SDS011;52970;46.752;17.108;2023-04-24T10:16:14;5.68;;;4.65;;
13102;SDS011;52970;46.752;17.108;2023-04-24T10:18:39;7.70;;;4.80;;
13102;SDS011;52970;46.752;17.108;2023-04-24T10:21:05;7.75;;;5.25;;
13102;SDS011;52970;46.752;17.108;2023-04-24T10:23:31;5.88;;;5.28;;
13102;SDS011;52970;46.752;17.108;2023-04-24T10:25:57;5.90;;;5.30;;
13102;SDS011;52970;46.752;17.108;2023-04-24T10:28:23;7.18;;;5.20;;
13102;SDS011;52970;46.752;17.108;2023-04-24T10:30:49;8.10;;;5.20;;
13102;SDS011;52970;46.752;17.108;2023-04-24T10:33:14;8.18;;;5.07;;
13102;SDS011;52970;46.752;17.108;2023-04-24T10:35:42;6.25;;;4.97;;
13102;SDS011;52970;46.752;17.108;2023-04-24T10:38:08;5.55;;;4.30;;
13102;SDS011;52970;46.752;17.108;2023-04-24T10:40:34;6.00;;;4.32;;
13102;SDS011;52970;46.752;17.108;2023-04-24T10:43:03;7.50;;;4.15;;
13102;SDS011;52970;46.752;17.108;2023-04-24T10:45:31;8.85;;;4.40;;
13102;SDS011;52970;46.752;17.108;2023-04-24T10:48:06;7.57;;;3.80;;
13102;SDS011;52970;46.752;17.108;2023-04-24T10:50:50;5.07;;;3.28;;
13102;SDS011;52970;46.752;17.108;2023-04-24T10:53:17;10.45;;;3.80;;
13102;SDS011;52970;46.752;17.108;2023-04-24T10:55:51;6.45;;;3.33;;
13102;SDS011;52970;46.752;17.108;2023-04-24T10:58:22;4.90;;;3.10;;
13102;SDS011;52970;46.752;17.108;2023-04-24T11:00:58;6.05;;;3.65;;
13102;SDS011;52970;46.752;17.108;2023-04-24T11:03:24;4.88;;;2.92;;
13102;SDS011;52970;46.752;17.108;2023-04-24T11:05:52;5.82;;;3.10;;
13102;SDS011;52970;46.752;17.108;2023-04-24T11:08:24;3.58;;;3.28;;
13102;SDS011;52970;46.752;17.108;2023-04-24T11:11:33;5.65;;;3.65;;
13102;SDS011;52970;46.752;17.108;2023-04-24T11:19:05;3.30;;;3.00;;
13102;SDS011;52970;46.752;17.108;2023-04-24T11:26:53;3.47;;;3.17;;
13102;SDS011;52970;46.752;17.108;2023-04-24T11:29:19;3.72;;;2.88;;
13102;SDS011;52970;46.752;17.108;2023-04-24T11:31:45;3.58;;;2.83;;
13102;SDS011;52970;46.752;17.108;2023-04-24T11:34:16;4.10;;;3.13;;
13102;SDS011;52970;46.752;17.108;2023-04-24T11:36:45;6.03;;;3.45;;
13102;SDS011;52970;46.752;17.108;2023-04-24T11:39:10;3.20;;;2.78;;
13102;SDS011;52970;46.752;17.108;2023-04-24T11:41:36;5.50;;;3.22;;
13102;SDS011;52970;46.752;17.108;2023-04-24T11:44:02;3.80;;;2.78;;
13102;SDS011;52970;46.752;17.108;2023-04-24T11:46:28;5.35;;;3.40;;
13102;SDS011;52970;46.752;17.108;2023-04-24T11:48:55;3.70;;;3.33;;
13102;SDS011;52970;46.752;17.108;2023-04-24T11:51:21;3.35;;;3.05;;
13102;SDS011;52970;46.752;17.108;2023-04-24T11:53:47;3.90;;;3.10;;
13102;SDS011;52970;46.752;17.108;2023-04-24T11:56:13;4.65;;;3.05;;
13102;SDS011;52970;46.752;17.108;2023-04-24T11:58:42;5.10;;;3.20;;
13102;SDS011;52970;46.752;17.108;2023-04-24T12:01:07;6.20;;;2.92;;
13102;SDS011;52970;46.752;17.108;2023-04-24T12:03:32;5.38;;;3.22;;
13102;SDS011;52970;46.752;17.108;2023-04-24T12:06:04;6.47;;;3.15;;
13102;SDS011;52970;46.752;17.108;2023-04-24T12:08:31;3.25;;;2.90;;
13102;SDS011;52970;46.752;17.108;2023-04-24T12:10:57;6.82;;;3.33;;
13102;SDS011;52970;46.752;17.108;2023-04-24T12:13:25;3.78;;;2.70;;
13102;SDS011;52970;46.752;17.108;2023-04-24T12:15:50;3.70;;;3.17;;
13102;SDS011;52970;46.752;17.108;2023-04-24T12:18:15;6.00;;;5.22;;
13102;SDS011;52970;46.752;17.108;2023-04-24T12:20:42;5.85;;;4.25;;
13102;SDS011;52970;46.752;17.108;2023-04-24T12:23:07;5.13;;;4.63;;
13102;SDS011;52970;46.752;17.108;2023-04-24T12:25:32;6.80;;;4.30;;
13102;SDS011;52970;46.752;17.108;2023-04-24T12:30:29;5.70;;;4.88;;
13102;SDS011;52970;46.752;17.108;2023-04-24T12:32:56;5.53;;;4.00;;
13102;SDS011;52970;46.752;17.108;2023-04-24T12:35:23;6.03;;;4.45;;
13102;SDS011;52970;46.752;17.108;2023-04-24T12:37:48;9.15;;;5.47;;
13102;SDS011;52970;46.752;17.108;2023-04-24T12:40:14;6.47;;;4.72;;
13102;SDS011;52970;46.752;17.108;2023-04-24T12:42:44;6.75;;;5.15;;
13102;SDS011;52970;46.752;17.108;2023-04-24T12:45:10;6.07;;;4.97;;
13102;SDS011;52970;46.752;17.108;2023-04-24T12:47:37;6.38;;;4.93;;
13102;SDS011;52970;46.752;17.108;2023-04-24T12:50:03;5.53;;;4.70;;
13102;SDS011;52970;46.752;17.108;2023-04-24T12:52:28;7.65;;;5.50;;
13102;SDS011;52970;46.752;17.108;2023-04-24T12:54:55;5.43;;;4.95;;
13102;SDS011;52970;46.752;17.108;2023-04-24T12:57:21;5.35;;;4.85;;
13102;SDS011;52970;46.752;17.108;2023-04-24T12:59:46;5.68;;;4.38;;
13102;SDS011;52970;46.752;17.108;2023-04-24T13:02:11;5.93;;;4.78;;
13102;SDS011;52970;46.752;17.108;2023-04-24T13:04:37;5.00;;;4.50;;
13102;SDS011;52970;46.752;17.108;2023-04-24T13:07:02;7.75;;;5.07;;
13102;SDS011;52970;46.752;17.108;2023-04-24T13:09:27;5.90;;;5.15;;
13102;SDS011;52970;46.752;17.108;2023-04-24T13:11:53;5.30;;;4.75;;
13102;SDS011;52970;46.752;17.108;2023-04-24T13:14:18;5.43;;;4.88;;
13102;SDS011;52970;46.752;17.108;2023-04-24T13:16:44;7.57;;;4.85;;
13102;SDS011;52970;46.752;17.108;2023-04-24T13:19:17;6.65;;;4.57;;
13102;SDS011;52970;46.752;17.108;2023-04-24T13:21:43;6.95;;;4.72;;
13102;SDS011;52970;46.752;17.108;2023-04-24T13:24:08;6.35;;;4.50;;
13102;SDS011;52970;46.752;17.108;2023-04-24T13:26:34;5.32;;;4.75;;
13102;SDS011;52970;46.752;17.108;2023-04-24T13:29:00;7.85;;;4.88;;
13102;SDS011;52970;46.752;17.108;2023-04-24T13:31:25;5.35;;;4.63;;
13102;SDS011;52970;46.752;17.108;2023-04-24T13:33:50;4.63;;;4.15;;
13102;SDS011;52970;46.752;17.108;2023-04-24T13:36:15;6.38;;;4.65;;
13102;SDS011;52970;46.752;17.108;2023-04-24T13:38:42;4.78;;;4.22;;
13102;SDS011;52970;46.752;17.108;2023-04-24T13:41:07;5.82;;;4.47;;
13102;SDS011;52970;46.752;17.108;2023-04-24T13:43:33;4.90;;;4.50;;
13102;SDS011;52970;46.752;17.108;2023-04-24T13:45:58;5.10;;;4.35;;
13102;SDS011;52970;46.752;17.108;2023-04-24T13:48:24;5.18;;;4.68;;
13102;SDS011;52970;46.752;17.108;2023-04-24T13:50:50;5.35;;;4.85;;
13102;SDS011;52970;46.752;17.108;2023-04-24T13:53:15;5.00;;;4.57;;
13102;SDS011;52970;46.752;17.108;2023-04-24T13:55:40;10.43;;;7.88;;
13102;SDS011;52970;46.752;17.108;2023-04-24T13:58:05;7.43;;;6.65;;
13102;SDS011;52970;46.752;17.108;2023-04-24T14:00:31;7.88;;;5.97;;
13102;SDS011;52970;46.752;17.108;2023-04-24T14:02:56;7.90;;;7.10;;
13102;SDS011;52970;46.752;17.108;2023-04-24T14:05:22;6.65;;;6.05;;
13102;SDS011;52970;46.752;17.108;2023-04-24T14:07:47;6.72;;;6.13;;
13102;SDS011;52970;46.752;17.108;2023-04-24T14:10:12;6.95;;;6.25;;
13102;SDS011;52970;46.752;17.108;2023-04-24T14:12:37;7.03;;;5.80;;
13102;SDS011;52970;46.752;17.108;2023-04-24T14:15:03;6.88;;;5.80;;
13102;SDS011;52970;46.752;17.108;2023-04-24T14:17:29;6.68;;;5.50;;
13102;SDS011;52970;46.752;17.108;2023-04-24T14:19:55;7.28;;;6.57;;
13102;SDS011;52970;46.752;17.108;2023-04-24T14:22:21;6.30;;;5.70;;
13102;SDS011;52970;46.752;17.108;2023-04-24T14:24:47;8.00;;;4.78;;
13102;SDS011;52970;46.752;17.108;2023-04-24T14:27:12;4.50;;;4.15;;
13102;SDS011;52970;46.752;17.108;2023-04-24T14:29:37;3.85;;;3.50;;
13102;SDS011;52970;46.752;17.108;2023-04-24T14:32:02;7.90;;;3.88;;
13102;SDS011;52970;46.752;17.108;2023-04-24T14:34:28;11.45;;;3.92;;
13102;SDS011;52970;46.752;17.108;2023-04-24T14:36:53;8.25;;;3.90;;
13102;SDS011;52970;46.752;17.108;2023-04-24T14:39:19;8.15;;;5.25;;